createdAt,value
2022-09-17T00:01:47.397Z,0.10
2022-09-17T00:04:16.436Z,0.20
2022-09-17T00:06:45.434Z,0.10
2022-09-17T00:09:15.793Z,0.10
2022-09-17T00:11:45.065Z,0.00
2022-09-17T00:14:16.310Z,0.10
2022-09-17T00:16:47.159Z,0.10
2022-09-17T00:19:18.450Z,0.10
2022-09-17T00:21:48.092Z,0.10
2022-09-17T00:24:19.502Z,0.00
2022-09-17T00:26:49.069Z,0.10
2022-09-17T00:29:18.376Z,0.10
2022-09-17T00:31:47.465Z,0.10
2022-09-17T00:34:16.452Z,0.00
2022-09-17T00:36:45.485Z,0.10
2022-09-17T00:39:16.292Z,0.00
2022-09-17T00:41:46.802Z,0.00
2022-09-17T00:44:40.671Z,0.00
2022-09-17T00:47:14.761Z,0.10
2022-09-17T00:49:44.550Z,0.10
2022-09-17T00:52:17.057Z,0.00
2022-09-17T00:54:53.667Z,0.10
2022-09-17T00:57:24.190Z,0.10
2022-09-17T00:59:53.372Z,0.10
2022-09-17T01:02:22.605Z,0.10
2022-09-17T01:04:51.999Z,0.00
2022-09-17T01:07:40.643Z,0.10
2022-09-17T01:10:21.013Z,0.20
2022-09-17T01:13:06.787Z,0.10
2022-09-17T01:15:43.451Z,0.10
2022-09-17T01:18:37.764Z,0.10
2022-09-17T01:21:40.466Z,0.10
2022-09-17T01:24:54.379Z,0.10
2022-09-17T01:28:08.451Z,0.10
2022-09-17T01:31:02.436Z,0.00
2022-09-17T01:33:40.947Z,0.10
2022-09-17T01:36:27.430Z,0.10
2022-09-17T01:39:06.828Z,0.10
2022-09-17T01:41:44.840Z,0.10
2022-09-17T01:44:21.275Z,0.00
2022-09-17T01:46:56.357Z,0.10
2022-09-17T01:49:26.564Z,0.00
2022-09-17T01:51:56.842Z,0.10
2022-09-17T01:54:31.261Z,0.10
2022-09-17T01:57:05.417Z,0.10
2022-09-17T01:59:39.096Z,0.00
2022-09-17T02:02:16.066Z,0.10
2022-09-17T02:04:54.398Z,0.10
2022-09-17T02:07:26.031Z,0.00
2022-09-17T02:10:00.576Z,0.10
2022-09-17T02:12:35.294Z,0.10
2022-09-17T02:15:08.754Z,0.10
2022-09-17T02:17:45.366Z,0.10
2022-09-17T02:20:15.720Z,0.10
2022-09-17T02:22:52.414Z,0.10
2022-09-17T02:25:27.374Z,0.10
2022-09-17T02:28:03.803Z,0.10
2022-09-17T02:30:33.233Z,0.10
2022-09-17T02:33:06.773Z,0.10
2022-09-17T02:35:36.563Z,0.07
2022-09-17T02:38:05.894Z,0.10
2022-09-17T02:40:42.362Z,0.10
2022-09-17T02:43:23.283Z,0.10
2022-09-17T02:46:06.341Z,0.10
2022-09-17T02:48:54.677Z,0.10
2022-09-17T02:51:33.212Z,0.10
2022-09-17T02:54:13.375Z,0.10
2022-09-17T02:56:47.516Z,0.10
2022-09-17T02:59:24.194Z,0.10
2022-09-17T03:01:59.746Z,0.10
2022-09-17T03:04:32.125Z,0.10
2022-09-17T03:07:02.084Z,0.10
2022-09-17T03:09:31.197Z,0.10
2022-09-17T03:12:00.193Z,0.10
2022-09-17T03:14:29.251Z,0.10
2022-09-17T03:16:58.382Z,0.00
2022-09-17T03:19:28.894Z,0.10
2022-09-17T03:21:57.916Z,0.40
2022-09-17T03:24:27.090Z,0.10
2022-09-17T03:26:56.206Z,0.10
2022-09-17T03:29:25.682Z,0.00
2022-09-17T03:31:54.586Z,0.10
2022-09-17T03:34:23.930Z,0.00
2022-09-17T03:36:54.259Z,0.10
2022-09-17T03:39:23.445Z,0.10
2022-09-17T03:41:52.586Z,0.10
2022-09-17T03:44:23.720Z,0.10
2022-09-17T03:46:52.836Z,0.10
2022-09-17T03:49:23.958Z,0.10
2022-09-17T03:51:54.462Z,0.10
2022-09-17T03:54:23.458Z,0.00
2022-09-17T03:56:52.368Z,0.10
2022-09-17T03:59:21.344Z,0.10
2022-09-17T04:01:50.540Z,0.00
2022-09-17T04:04:19.545Z,0.10
2022-09-17T04:06:49.170Z,0.10
2022-09-17T04:09:19.769Z,0.20
2022-09-17T04:11:48.681Z,0.10
2022-09-17T04:14:17.659Z,0.07
2022-09-17T04:16:46.598Z,0.10
2022-09-17T04:19:15.549Z,0.10
2022-09-17T04:21:44.489Z,0.10
2022-09-17T04:24:13.453Z,0.10
2022-09-17T04:26:43.823Z,0.10
2022-09-17T04:29:12.787Z,0.10
2022-09-17T04:31:42.091Z,0.10
2022-09-17T04:34:11.116Z,0.00
2022-09-17T04:36:40.221Z,0.10
2022-09-17T04:39:09.761Z,0.00
2022-09-17T04:41:38.755Z,0.10
2022-09-17T04:44:09.029Z,0.00
2022-09-17T04:46:38.113Z,0.10
2022-09-17T04:49:07.181Z,0.10
2022-09-17T04:51:36.268Z,0.10
2022-09-17T04:54:05.372Z,0.00
2022-09-17T04:56:34.416Z,0.10
2022-09-17T04:59:03.406Z,0.10
2022-09-17T05:01:33.808Z,0.00
2022-09-17T05:04:03.295Z,0.07
2022-09-17T05:06:32.385Z,0.10
2022-09-17T05:09:02.052Z,0.00
2022-09-17T05:11:31.107Z,0.20
2022-09-17T05:14:00.299Z,0.10
2022-09-17T05:16:29.393Z,0.00
2022-09-17T05:18:59.888Z,0.70
2022-09-17T05:21:29.187Z,0.03
2022-09-17T05:23:58.290Z,0.10
2022-09-17T05:26:27.494Z,0.00
2022-09-17T05:28:56.510Z,0.00
2022-09-17T05:31:25.570Z,0.10
2022-09-17T05:33:54.614Z,0.10
2022-09-17T05:36:25.163Z,0.10
2022-09-17T05:38:54.176Z,0.00
2022-09-17T05:41:23.289Z,0.10
2022-09-17T05:43:52.307Z,0.00
2022-09-17T05:46:21.421Z,0.10
2022-09-17T05:48:50.462Z,0.00
2022-09-17T05:51:19.741Z,0.00
2022-09-17T05:53:50.159Z,0.10
2022-09-17T05:56:19.414Z,0.10
2022-09-17T05:58:48.389Z,0.10
2022-09-17T06:01:17.386Z,0.00
2022-09-17T06:03:46.366Z,0.10
2022-09-17T06:06:15.409Z,0.10
2022-09-17T06:08:44.488Z,0.00
2022-09-17T06:11:14.914Z,0.03
2022-09-17T06:13:44.513Z,0.10
2022-09-17T06:16:13.530Z,0.10
2022-09-17T06:18:42.507Z,0.00
2022-09-17T06:21:11.496Z,0.10
2022-09-17T06:23:40.452Z,0.00
2022-09-17T06:26:09.425Z,0.10
2022-09-17T06:28:41.838Z,0.10
2022-09-17T06:31:13.898Z,0.10
2022-09-17T06:33:43.003Z,14.43
2022-09-17T06:36:14.346Z,0.10
2022-09-17T06:38:44.200Z,0.10
2022-09-17T06:41:14.525Z,0.00
2022-09-17T06:43:45.010Z,0.10
2022-09-17T06:46:14.446Z,0.10
2022-09-17T06:48:43.436Z,0.10
2022-09-17T06:51:14.618Z,0.00
2022-09-17T06:53:43.570Z,0.10
2022-09-17T06:56:12.612Z,0.03
2022-09-17T06:58:44.729Z,0.03
2022-09-17T07:01:17.482Z,9.40
2022-09-17T07:03:51.667Z,3.70
2022-09-17T07:06:22.519Z,12.33
2022-09-17T07:08:52.625Z,6.27
2022-09-17T07:11:22.527Z,3.83
2022-09-17T07:13:52.326Z,11.03
2022-09-17T07:16:24.504Z,8.30
2022-09-17T07:18:53.841Z,4.97
2022-09-17T07:21:22.824Z,13.50
2022-09-17T07:23:53.182Z,6.83
2022-09-17T07:26:22.366Z,2.40
2022-09-17T07:28:51.550Z,5.13
2022-09-17T07:31:22.003Z,3.10
2022-09-17T07:33:51.452Z,3.80
2022-09-17T07:36:20.746Z,6.20
2022-09-17T07:38:51.225Z,7.67
2022-09-17T07:41:21.498Z,3.30
2022-09-17T07:43:55.722Z,7.03
2022-09-17T07:46:27.896Z,6.70
2022-09-17T07:48:58.310Z,3.53
2022-09-17T07:51:30.145Z,0.53
2022-09-17T07:54:02.687Z,2.27
2022-09-17T07:56:33.255Z,1.93
2022-09-17T07:59:05.312Z,1.00
2022-09-17T08:01:37.494Z,1.80
2022-09-17T08:04:08.756Z,3.23
2022-09-17T08:06:41.672Z,17.90
2022-09-17T08:09:13.346Z,2.37
2022-09-17T08:11:55.655Z,2.80
2022-09-17T08:14:29.739Z,7.23
2022-09-17T08:17:02.499Z,4.20
2022-09-17T08:19:34.213Z,2.63
2022-09-17T08:22:04.783Z,6.63
2022-09-17T08:24:35.089Z,5.70
2022-09-17T08:27:05.720Z,8.70
2022-09-17T08:29:35.854Z,5.45
2022-09-17T08:32:08.325Z,2.85
2022-09-17T08:34:38.708Z,4.53
2022-09-17T08:37:11.812Z,8.90
2022-09-17T08:39:43.111Z,3.67
2022-09-17T08:42:22.082Z,10.23
2022-09-17T08:44:55.212Z,3.42
2022-09-17T08:47:38.237Z,4.93
2022-09-17T08:50:15.471Z,4.25
2022-09-17T08:53:18.941Z,11.82
2022-09-17T08:55:53.335Z,8.85
2022-09-17T08:58:39.465Z,3.88
2022-09-17T09:01:29.484Z,9.20
2022-09-17T09:04:16.773Z,12.70
2022-09-17T09:06:54.075Z,25.55
2022-09-17T09:09:28.116Z,6.55
2022-09-17T09:12:06.244Z,5.68
2022-09-17T09:14:41.875Z,2.25
2022-09-17T09:17:12.581Z,13.23
2022-09-17T09:19:46.840Z,10.57
2022-09-17T09:22:32.154Z,2.67
2022-09-17T09:25:11.362Z,8.87
2022-09-17T09:27:47.647Z,6.47
2022-09-17T09:30:23.802Z,8.10
2022-09-17T09:33:06.770Z,5.00
2022-09-17T09:35:41.741Z,2.83
2022-09-17T09:38:21.435Z,2.10
2022-09-17T09:40:56.307Z,0.80
2022-09-17T09:43:46.591Z,6.63
2022-09-17T09:46:44.537Z,1.20
2022-09-17T09:49:23.872Z,1.67
2022-09-17T09:52:09.435Z,1.07
2022-09-17T09:54:53.261Z,1.17
2022-09-17T09:57:33.137Z,2.75
2022-09-17T10:00:26.871Z,0.50
2022-09-17T10:03:00.568Z,1.23
2022-09-17T10:05:31.839Z,3.25
2022-09-17T10:08:11.611Z,2.17
2022-09-17T10:10:56.588Z,2.45
2022-09-17T10:13:25.873Z,4.60
2022-09-17T10:15:54.892Z,1.92
2022-09-17T10:18:25.507Z,1.45
2022-09-17T10:20:57.337Z,5.57
2022-09-17T10:23:29.905Z,3.47
2022-09-17T10:25:59.325Z,1.25
2022-09-17T10:28:34.888Z,6.13
2022-09-17T10:31:10.175Z,2.28
2022-09-17T10:33:56.638Z,2.63
2022-09-17T10:36:40.208Z,5.72
2022-09-17T10:39:32.728Z,17.63
2022-09-17T10:42:03.758Z,2.78
2022-09-17T10:44:34.450Z,4.15
2022-09-17T10:47:13.066Z,5.95
2022-09-17T10:49:45.664Z,3.85
2022-09-17T10:52:24.534Z,3.30
2022-09-17T10:55:05.178Z,7.93
2022-09-17T10:57:59.258Z,4.85
2022-09-17T11:00:30.984Z,9.50
2022-09-17T11:03:19.147Z,3.10
2022-09-17T11:06:07.855Z,7.20
2022-09-17T11:08:50.688Z,4.50
2022-09-17T11:11:33.271Z,2.28
2022-09-17T11:14:15.303Z,1.67
2022-09-17T11:16:57.635Z,3.92
2022-09-17T11:19:36.297Z,4.88
2022-09-17T11:22:14.441Z,11.55
2022-09-17T11:25:09.220Z,2.75
2022-09-17T11:27:51.389Z,6.68
2022-09-17T11:30:23.117Z,3.25
2022-09-17T11:33:18.612Z,33.88
2022-09-17T11:35:50.764Z,8.27
2022-09-17T11:38:24.983Z,2.78
2022-09-17T11:41:03.642Z,4.22
2022-09-17T11:43:36.568Z,5.65
2022-09-17T11:46:11.752Z,4.90
2022-09-17T11:48:46.525Z,2.50
2022-09-17T11:51:25.598Z,3.75
2022-09-17T11:54:00.797Z,12.15
2022-09-17T11:56:35.244Z,3.50
2022-09-17T11:59:13.948Z,2.08
2022-09-17T12:01:51.349Z,1.98
2022-09-17T12:04:43.798Z,4.15
2022-09-17T12:07:30.081Z,3.78
2022-09-17T12:10:03.888Z,3.72
2022-09-17T12:12:49.681Z,5.65
2022-09-17T12:15:23.618Z,1.38
2022-09-17T12:18:27.736Z,3.40
2022-09-17T12:20:56.509Z,3.33
2022-09-17T12:23:34.680Z,3.55
2022-09-17T12:26:15.462Z,3.83
2022-09-17T12:28:54.686Z,2.72
2022-09-17T12:31:32.175Z,3.25
2022-09-17T12:34:10.171Z,5.10
2022-09-17T12:36:48.981Z,7.35
2022-09-17T12:39:57.007Z,2.67
2022-09-17T12:42:41.702Z,5.00
2022-09-17T12:45:41.964Z,3.60
2022-09-17T12:48:35.174Z,5.53
2022-09-17T12:51:22.750Z,7.13
2022-09-17T12:54:06.502Z,3.78
2022-09-17T12:56:51.472Z,4.40
2022-09-17T12:59:24.983Z,6.57
2022-09-17T13:02:00.489Z,5.25
2022-09-17T13:05:08.663Z,5.50
2022-09-17T13:07:54.188Z,5.72
2022-09-17T13:10:42.659Z,5.47
2022-09-17T13:13:28.033Z,5.72
2022-09-17T13:16:13.270Z,5.57
2022-09-17T13:21:55.114Z,9.55
2022-09-17T13:24:29.896Z,4.65
2022-09-17T13:27:02.636Z,3.50
2022-09-17T13:30:01.059Z,2.65
2022-09-17T13:32:51.484Z,6.93
2022-09-17T13:35:50.079Z,4.88
2022-09-17T13:38:23.997Z,3.60
2022-09-17T13:40:53.953Z,1.48
2022-09-17T13:43:27.210Z,1.60
2022-09-17T13:46:12.756Z,4.82
2022-09-17T13:49:00.756Z,4.10
2022-09-17T13:51:51.819Z,0.95
2022-09-17T13:54:24.221Z,4.88
2022-09-17T13:57:10.042Z,3.83
2022-09-17T13:59:52.381Z,5.63
2022-09-17T14:02:37.248Z,3.93
2022-09-17T14:05:32.081Z,2.87
2022-09-17T14:08:31.102Z,6.03
2022-09-17T14:11:23.286Z,1.27
2022-09-17T14:13:53.112Z,10.73
2022-09-17T14:16:46.230Z,4.90
2022-09-17T14:19:27.853Z,6.63
2022-09-17T14:22:04.325Z,3.33
2022-09-17T14:24:38.474Z,3.27
2022-09-17T14:27:30.951Z,0.93
2022-09-17T14:30:14.628Z,2.70
2022-09-17T14:32:49.404Z,2.70
2022-09-17T14:35:22.834Z,4.13
2022-09-17T14:37:58.968Z,1.83
2022-09-17T14:40:29.468Z,3.70
2022-09-17T14:43:00.283Z,3.87
2022-09-17T14:45:32.365Z,0.60
2022-09-17T14:48:36.997Z,1.30
2022-09-17T14:51:30.238Z,5.93
2022-09-17T14:54:15.487Z,3.60
2022-09-17T14:56:50.319Z,2.57
2022-09-17T14:59:26.638Z,6.20
2022-09-17T15:01:55.763Z,5.27
2022-09-17T15:04:27.098Z,2.40
2022-09-17T15:07:08.964Z,2.40
2022-09-17T15:09:38.159Z,3.60
2022-09-17T15:12:08.754Z,1.80
2022-09-17T15:14:40.792Z,3.10
2022-09-17T15:17:16.940Z,2.83
2022-09-17T15:19:50.096Z,4.63
2022-09-17T15:22:24.481Z,2.43
2022-09-17T15:24:56.849Z,1.67
2022-09-17T15:27:30.232Z,0.97
2022-09-17T15:30:03.710Z,4.70
2022-09-17T15:32:33.430Z,3.93
2022-09-17T15:35:21.724Z,3.40
2022-09-17T15:40:42.499Z,1.83
2022-09-17T15:43:22.449Z,4.40
2022-09-17T15:45:52.970Z,6.60
2022-09-17T15:48:46.074Z,3.43
2022-09-17T15:51:25.624Z,5.33
2022-09-17T15:53:56.235Z,5.10
2022-09-17T15:56:28.972Z,6.23
2022-09-17T15:59:02.349Z,3.33
2022-09-17T16:01:55.385Z,3.90
2022-09-17T16:04:29.029Z,6.17
2022-09-17T16:07:04.062Z,3.83
2022-09-17T16:09:46.694Z,1.60
2022-09-17T16:12:18.681Z,2.40
2022-09-17T16:14:50.144Z,3.67
2022-09-17T16:17:35.165Z,2.27
2022-09-17T16:20:13.842Z,1.00
2022-09-17T16:22:43.186Z,0.80
2022-09-17T16:25:12.366Z,1.40
2022-09-17T16:27:50.376Z,0.70
2022-09-17T16:30:22.006Z,1.70
2022-09-17T16:32:51.316Z,1.23
2022-09-17T16:35:23.672Z,0.90
2022-09-17T16:37:53.538Z,2.63
2022-09-17T16:40:24.797Z,1.40
2022-09-17T16:42:54.024Z,4.20
2022-09-17T16:45:28.114Z,1.40
2022-09-17T16:47:58.248Z,1.33
2022-09-17T16:50:30.287Z,0.77
2022-09-17T16:53:04.153Z,1.50
2022-09-17T16:55:34.355Z,2.67
2022-09-17T16:58:03.413Z,5.23
2022-09-17T17:00:32.449Z,2.17
2022-09-17T17:03:01.467Z,3.20
2022-09-17T17:05:32.364Z,2.83
2022-09-17T17:08:06.482Z,3.77
2022-09-17T17:10:36.460Z,2.80
2022-09-17T17:13:07.233Z,1.97
2022-09-17T17:15:36.502Z,2.23
2022-09-17T17:18:05.602Z,0.93
2022-09-17T17:20:38.252Z,1.00
2022-09-17T17:23:07.309Z,6.03
2022-09-17T17:25:36.311Z,2.43
2022-09-17T17:28:05.650Z,1.83
2022-09-17T17:30:35.202Z,2.87
2022-09-17T17:33:05.342Z,2.23
2022-09-17T17:35:34.493Z,0.93
2022-09-17T17:38:04.947Z,1.93
2022-09-17T17:40:34.091Z,2.97
2022-09-17T17:43:03.543Z,1.87
2022-09-17T17:45:32.466Z,2.23
2022-09-17T17:48:01.574Z,1.63
2022-09-17T17:50:30.529Z,3.90
2022-09-17T17:52:59.671Z,0.93
2022-09-17T17:55:30.011Z,2.60
2022-09-17T17:58:01.587Z,1.90
2022-09-17T18:00:30.927Z,4.77
2022-09-17T18:03:00.158Z,8.63
2022-09-17T18:05:29.326Z,7.67
2022-09-17T18:07:58.362Z,8.90
2022-09-17T18:10:29.374Z,3.57
2022-09-17T18:12:58.588Z,2.03
2022-09-17T18:15:27.641Z,3.03
2022-09-17T18:17:56.619Z,2.83
2022-09-17T18:20:25.641Z,6.20
2022-09-17T18:22:55.649Z,4.50
2022-09-17T18:25:24.603Z,5.37
2022-09-17T18:27:55.183Z,5.80
2022-09-17T18:30:24.432Z,9.73
2022-09-17T18:32:54.012Z,11.07
2022-09-17T18:35:23.493Z,7.50
2022-09-17T18:37:52.486Z,8.83
2022-09-17T18:40:21.734Z,4.63
2022-09-17T18:42:50.722Z,3.53
2022-09-17T18:45:24.382Z,3.57
2022-09-17T18:47:58.346Z,4.97
2022-09-17T18:50:27.444Z,6.00
2022-09-17T18:52:56.622Z,5.97
2022-09-17T18:55:25.586Z,11.77
2022-09-17T18:57:54.970Z,6.17
2022-09-17T19:00:25.741Z,3.97
2022-09-17T19:02:58.298Z,5.10
2022-09-17T19:05:27.309Z,4.33
2022-09-17T19:07:56.740Z,4.80
2022-09-17T19:10:28.656Z,9.93
2022-09-17T19:12:57.734Z,5.40
2022-09-17T19:15:28.610Z,7.33
2022-09-17T19:17:58.548Z,8.83
2022-09-17T19:20:29.397Z,5.07
2022-09-17T19:22:58.345Z,4.50
2022-09-17T19:25:28.054Z,7.47
2022-09-17T19:27:57.409Z,7.47
2022-09-17T19:30:29.699Z,7.27
2022-09-17T19:32:59.513Z,3.90
2022-09-17T19:35:30.212Z,9.57
2022-09-17T19:38:00.291Z,6.80
2022-09-17T19:40:29.484Z,6.97
2022-09-17T19:42:59.013Z,6.87
2022-09-17T19:45:32.693Z,11.43
2022-09-17T19:48:02.779Z,17.40
2022-09-17T19:50:32.596Z,5.07
2022-09-17T19:53:01.737Z,10.90
2022-09-17T19:55:33.438Z,8.30
2022-09-17T19:58:04.486Z,8.30
2022-09-17T20:00:36.382Z,9.43
2022-09-17T20:03:05.685Z,10.50
2022-09-17T20:05:36.481Z,9.10
2022-09-17T20:08:06.227Z,10.37
2022-09-17T20:10:37.433Z,18.93
2022-09-17T20:13:07.517Z,12.23
2022-09-17T20:15:38.166Z,15.27
2022-09-17T20:18:07.370Z,11.00
2022-09-17T20:20:39.868Z,10.57
2022-09-17T20:23:08.833Z,10.93
2022-09-17T20:25:38.242Z,10.00
2022-09-17T20:28:07.668Z,16.63
2022-09-17T20:30:38.536Z,25.00
2022-09-17T20:33:07.668Z,14.90
2022-09-17T20:35:37.225Z,10.23
2022-09-17T20:38:59.968Z,18.50
2022-09-17T20:41:01.469Z,16.40
2022-09-17T20:43:33.649Z,8.17
2022-09-17T20:46:04.668Z,10.13
2022-09-17T20:48:37.193Z,10.00
2022-09-17T20:51:08.315Z,9.50
2022-09-17T20:53:39.353Z,13.67
2022-09-17T20:56:10.268Z,15.37
2022-09-17T20:58:45.307Z,13.73
2022-09-17T21:01:23.395Z,6.40
2022-09-17T21:03:54.793Z,11.37
2022-09-17T21:06:29.674Z,14.93
2022-09-17T21:09:00.728Z,22.87
2022-09-17T21:11:32.283Z,20.07
2022-09-17T21:14:02.396Z,18.33
2022-09-17T21:16:32.899Z,14.23
2022-09-17T21:19:04.773Z,19.00
2022-09-17T21:21:34.492Z,15.80
2022-09-17T21:24:05.187Z,14.27
2022-09-17T21:26:38.269Z,22.40
2022-09-17T21:29:07.557Z,8.53
2022-09-17T21:31:39.379Z,13.00
2022-09-17T21:34:11.232Z,14.77
2022-09-17T21:36:43.385Z,16.53
2022-09-17T21:39:14.804Z,9.40
2022-09-17T21:41:44.313Z,7.17
2022-09-17T21:44:15.447Z,16.00
2022-09-17T21:46:50.227Z,10.10
2022-09-17T21:49:20.895Z,19.97
2022-09-17T21:51:51.890Z,9.03
2022-09-17T21:54:25.772Z,12.20
2022-09-17T21:56:56.421Z,6.70
2022-09-17T21:59:27.203Z,10.33
2022-09-17T22:01:59.458Z,8.20
2022-09-17T22:04:32.223Z,8.23
2022-09-17T22:07:05.368Z,9.87
2022-09-17T22:09:35.844Z,11.43
2022-09-17T22:12:08.129Z,5.97
2022-09-17T22:14:38.881Z,12.70
2022-09-17T22:17:10.857Z,12.20
2022-09-17T22:19:41.127Z,12.63
2022-09-17T22:22:11.147Z,5.53
2022-09-17T22:24:44.318Z,8.30
2022-09-17T22:27:13.342Z,10.07
2022-09-17T22:29:43.315Z,13.53
2022-09-17T22:32:15.687Z,8.63
2022-09-17T22:34:46.134Z,8.63
2022-09-17T22:37:16.162Z,7.47
2022-09-17T22:39:45.143Z,10.00
2022-09-17T22:42:16.632Z,8.10
2022-09-17T22:44:45.708Z,12.07
2022-09-17T22:47:17.958Z,10.33
2022-09-17T22:49:49.018Z,4.67
2022-09-17T22:52:18.386Z,15.73
2022-09-17T22:54:47.420Z,8.47
2022-09-17T22:57:16.579Z,9.03
2022-09-17T22:59:45.597Z,6.07
2022-09-17T23:02:16.033Z,6.90
2022-09-17T23:04:45.204Z,7.40
2022-09-17T23:07:14.225Z,7.33
2022-09-17T23:09:43.218Z,10.30
2022-09-17T23:12:12.276Z,5.47
2022-09-17T23:14:41.393Z,12.00
2022-09-17T23:17:10.373Z,9.77
2022-09-17T23:19:40.634Z,12.83
2022-09-17T23:22:09.701Z,7.97
2022-09-17T23:24:38.644Z,11.90
2022-09-17T23:27:07.755Z,10.40
2022-09-17T23:29:36.759Z,10.73
2022-09-17T23:32:06.090Z,8.93
2022-09-17T23:34:37.730Z,10.30
2022-09-17T23:37:08.203Z,8.37
2022-09-17T23:39:37.186Z,7.90
2022-09-17T23:42:06.254Z,7.70
2022-09-17T23:44:36.134Z,11.77
2022-09-17T23:47:05.458Z,5.60
2022-09-17T23:49:34.378Z,6.50
2022-09-17T23:52:03.623Z,8.20
2022-09-17T23:54:34.198Z,8.77
2022-09-17T23:57:03.213Z,7.67
2022-09-17T23:59:32.195Z,5.17
